sensor_id;sensor_type;location;lat;lon;timestamp;temperature;humidity
17998;DHT22;9124;48.144;17.098;2023-09-19T00:00:16;21.10;96.70
17998;DHT22;9124;48.144;17.098;2023-09-19T00:04:44;21.10;96.70
17998;DHT22;9124;48.144;17.098;2023-09-19T00:09:11;21.10;96.80
17998;DHT22;9124;48.144;17.098;2023-09-19T00:13:38;21.00;96.80
17998;DHT22;9124;48.144;17.098;2023-09-19T00:18:05;21.00;96.90
17998;DHT22;9124;48.144;17.098;2023-09-19T00:22:35;21.00;97.00
17998;DHT22;9124;48.144;17.098;2023-09-19T00:27:04;20.90;97.20
17998;DHT22;9124;48.144;17.098;2023-09-19T00:31:32;20.90;97.20
17998;DHT22;9124;48.144;17.098;2023-09-19T00:35:58;20.90;97.70
17998;DHT22;9124;48.144;17.098;2023-09-19T00:40:25;20.70;98.40
17998;DHT22;9124;48.144;17.098;2023-09-19T00:44:52;20.50;99.20
17998;DHT22;9124;48.144;17.098;2023-09-19T00:49:18;20.30;99.90
17998;DHT22;9124;48.144;17.098;2023-09-19T00:53:48;20.20;99.90
17998;DHT22;9124;48.144;17.098;2023-09-19T00:58:17;20.20;99.90
17998;DHT22;9124;48.144;17.098;2023-09-19T01:02:43;20.10;99.90
17998;DHT22;9124;48.144;17.098;2023-09-19T01:07:10;20.10;99.90
17998;DHT22;9124;48.144;17.098;2023-09-19T01:11:47;20.00;99.90
17998;DHT22;9124;48.144;17.098;2023-09-19T01:30:56;19.60;99.90
17998;DHT22;9124;48.144;17.098;2023-09-19T01:35:25;19.40;99.90
17998;DHT22;9124;48.144;17.098;2023-09-19T01:39:58;19.30;99.90
17998;DHT22;9124;48.144;17.098;2023-09-19T01:45:36;19.10;99.90
17998;DHT22;9124;48.144;17.098;2023-09-19T01:49:44;19.00;99.90
17998;DHT22;9124;48.144;17.098;2023-09-19T01:54:33;18.70;99.90
17998;DHT22;9124;48.144;17.098;2023-09-19T01:59:07;18.60;99.90
17998;DHT22;9124;48.144;17.098;2023-09-19T02:03:38;18.50;99.90
17998;DHT22;9124;48.144;17.098;2023-09-19T02:08:05;18.40;99.90
17998;DHT22;9124;48.144;17.098;2023-09-19T02:12:33;18.40;99.90
17998;DHT22;9124;48.144;17.098;2023-09-19T02:17:03;18.30;99.90
17998;DHT22;9124;48.144;17.098;2023-09-19T02:21:33;18.20;99.90
17998;DHT22;9124;48.144;17.098;2023-09-19T02:26:00;18.10;99.90
17998;DHT22;9124;48.144;17.098;2023-09-19T02:30:27;18.10;99.90
17998;DHT22;9124;48.144;17.098;2023-09-19T02:34:54;18.00;99.90
17998;DHT22;9124;48.144;17.098;2023-09-19T02:39:22;18.00;99.90
17998;DHT22;9124;48.144;17.098;2023-09-19T02:43:49;18.00;99.90
17998;DHT22;9124;48.144;17.098;2023-09-19T02:48:16;18.00;99.90
17998;DHT22;9124;48.144;17.098;2023-09-19T02:52:45;17.90;99.90
17998;DHT22;9124;48.144;17.098;2023-09-19T02:57:15;17.90;99.90
17998;DHT22;9124;48.144;17.098;2023-09-19T03:01:44;17.80;99.90
17998;DHT22;9124;48.144;17.098;2023-09-19T03:06:14;17.80;99.90
17998;DHT22;9124;48.144;17.098;2023-09-19T03:10:42;17.80;99.90
17998;DHT22;9124;48.144;17.098;2023-09-19T03:15:09;17.70;99.90
17998;DHT22;9124;48.144;17.098;2023-09-19T03:19:36;17.60;99.90
17998;DHT22;9124;48.144;17.098;2023-09-19T03:24:07;17.50;99.90
17998;DHT22;9124;48.144;17.098;2023-09-19T03:28:34;17.50;99.90
17998;DHT22;9124;48.144;17.098;2023-09-19T03:33:01;17.40;99.90
17998;DHT22;9124;48.144;17.098;2023-09-19T03:37:27;17.30;99.90
17998;DHT22;9124;48.144;17.098;2023-09-19T03:41:55;17.10;99.90
17998;DHT22;9124;48.144;17.098;2023-09-19T03:46:21;17.10;99.90
17998;DHT22;9124;48.144;17.098;2023-09-19T03:50:49;17.10;99.90
17998;DHT22;9124;48.144;17.098;2023-09-19T03:55:17;17.20;99.90
17998;DHT22;9124;48.144;17.098;2023-09-19T03:59:45;17.30;99.90
17998;DHT22;9124;48.144;17.098;2023-09-19T04:04:12;17.30;99.90
17998;DHT22;9124;48.144;17.098;2023-09-19T04:08:41;17.40;99.90
17998;DHT22;9124;48.144;17.098;2023-09-19T04:13:07;17.40;99.90
17998;DHT22;9124;48.144;17.098;2023-09-19T04:17:34;17.40;99.90
17998;DHT22;9124;48.144;17.098;2023-09-19T04:22:01;17.50;99.90
17998;DHT22;9124;48.144;17.098;2023-09-19T04:26:27;17.50;99.90
17998;DHT22;9124;48.144;17.098;2023-09-19T04:30:54;17.50;99.90
17998;DHT22;9124;48.144;17.098;2023-09-19T04:35:21;17.50;99.90
17998;DHT22;9124;48.144;17.098;2023-09-19T04:39:48;17.60;99.90
17998;DHT22;9124;48.144;17.098;2023-09-19T04:44:14;17.70;99.90
17998;DHT22;9124;48.144;17.098;2023-09-19T04:48:41;17.60;99.90
17998;DHT22;9124;48.144;17.098;2023-09-19T04:53:07;17.60;99.90
17998;DHT22;9124;48.144;17.098;2023-09-19T05:02:02;17.60;99.90
17998;DHT22;9124;48.144;17.098;2023-09-19T05:06:29;17.60;99.90
17998;DHT22;9124;48.144;17.098;2023-09-19T05:10:56;17.70;99.90
17998;DHT22;9124;48.144;17.098;2023-09-19T05:15:23;17.70;99.90
17998;DHT22;9124;48.144;17.098;2023-09-19T05:19:49;17.70;99.90
17998;DHT22;9124;48.144;17.098;2023-09-19T05:24:16;17.80;99.90
17998;DHT22;9124;48.144;17.098;2023-09-19T05:28:43;17.80;99.90
17998;DHT22;9124;48.144;17.098;2023-09-19T05:33:09;17.90;99.90
17998;DHT22;9124;48.144;17.098;2023-09-19T05:37:36;17.90;99.90
17998;DHT22;9124;48.144;17.098;2023-09-19T05:42:03;17.90;99.90
17998;DHT22;9124;48.144;17.098;2023-09-19T05:46:29;18.00;99.90
17998;DHT22;9124;48.144;17.098;2023-09-19T05:50:56;18.00;99.90
17998;DHT22;9124;48.144;17.098;2023-09-19T05:55:23;18.00;99.90
17998;DHT22;9124;48.144;17.098;2023-09-19T05:59:52;18.00;99.90
17998;DHT22;9124;48.144;17.098;2023-09-19T06:04:18;18.10;99.90
17998;DHT22;9124;48.144;17.098;2023-09-19T06:08:45;18.20;99.90
17998;DHT22;9124;48.144;17.098;2023-09-19T06:13:12;18.30;99.90
17998;DHT22;9124;48.144;17.098;2023-09-19T06:17:38;18.40;99.90
17998;DHT22;9124;48.144;17.098;2023-09-19T06:22:05;18.50;99.90
17998;DHT22;9124;48.144;17.098;2023-09-19T06:26:31;18.60;99.90
17998;DHT22;9124;48.144;17.098;2023-09-19T06:30:58;18.80;99.90
17998;DHT22;9124;48.144;17.098;2023-09-19T06:35:24;19.00;99.90
17998;DHT22;9124;48.144;17.098;2023-09-19T06:39:52;19.40;99.90
17998;DHT22;9124;48.144;17.098;2023-09-19T06:44:18;19.70;99.90
17998;DHT22;9124;48.144;17.098;2023-09-19T06:48:45;19.80;99.90
17998;DHT22;9124;48.144;17.098;2023-09-19T06:53:14;20.10;99.90
17998;DHT22;9124;48.144;17.098;2023-09-19T06:57:40;20.40;99.90
17998;DHT22;9124;48.144;17.098;2023-09-19T07:02:09;20.50;99.90
17998;DHT22;9124;48.144;17.098;2023-09-19T07:06:35;20.50;99.90
17998;DHT22;9124;48.144;17.098;2023-09-19T07:11:01;20.50;99.90
17998;DHT22;9124;48.144;17.098;2023-09-19T07:15:29;20.60;99.90
17998;DHT22;9124;48.144;17.098;2023-09-19T07:19:57;20.90;99.90
17998;DHT22;9124;48.144;17.098;2023-09-19T07:24:25;20.90;99.90
17998;DHT22;9124;48.144;17.098;2023-09-19T07:28:53;20.90;99.90
17998;DHT22;9124;48.144;17.098;2023-09-19T07:33:20;21.00;99.90
17998;DHT22;9124;48.144;17.098;2023-09-19T07:37:46;21.20;99.90
17998;DHT22;9124;48.144;17.098;2023-09-19T07:42:16;21.50;99.90
17998;DHT22;9124;48.144;17.098;2023-09-19T07:46:43;21.90;99.90
17998;DHT22;9124;48.144;17.098;2023-09-19T07:51:10;22.00;99.90
17998;DHT22;9124;48.144;17.098;2023-09-19T07:55:36;22.00;99.90
17998;DHT22;9124;48.144;17.098;2023-09-19T08:00:03;22.20;99.90
17998;DHT22;9124;48.144;17.098;2023-09-19T08:04:37;22.10;99.90
17998;DHT22;9124;48.144;17.098;2023-09-19T08:09:03;22.40;99.90
17998;DHT22;9124;48.144;17.098;2023-09-19T08:13:40;22.50;99.90
17998;DHT22;9124;48.144;17.098;2023-09-19T08:18:11;22.50;99.90
17998;DHT22;9124;48.144;17.098;2023-09-19T08:22:38;22.60;99.90
17998;DHT22;9124;48.144;17.098;2023-09-19T08:27:04;22.70;99.90
17998;DHT22;9124;48.144;17.098;2023-09-19T08:31:35;22.60;99.90
17998;DHT22;9124;48.144;17.098;2023-09-19T08:36:02;22.30;99.90
17998;DHT22;9124;48.144;17.098;2023-09-19T08:40:38;22.50;99.90
17998;DHT22;9124;48.144;17.098;2023-09-19T08:45:09;23.70;99.90
17998;DHT22;9124;48.144;17.098;2023-09-19T08:50:07;24.70;99.90
17998;DHT22;9124;48.144;17.098;2023-09-19T08:54:40;24.40;99.90
17998;DHT22;9124;48.144;17.098;2023-09-19T08:59:07;23.70;99.90
17998;DHT22;9124;48.144;17.098;2023-09-19T09:03:34;23.30;99.90
17998;DHT22;9124;48.144;17.098;2023-09-19T09:08:02;22.90;99.90
17998;DHT22;9124;48.144;17.098;2023-09-19T09:12:30;22.70;99.90
17998;DHT22;9124;48.144;17.098;2023-09-19T09:16:57;22.70;99.90
17998;DHT22;9124;48.144;17.098;2023-09-19T09:21:25;22.80;99.90
17998;DHT22;9124;48.144;17.098;2023-09-19T09:25:56;22.50;99.90
17998;DHT22;9124;48.144;17.098;2023-09-19T09:30:36;22.20;99.90
17998;DHT22;9124;48.144;17.098;2023-09-19T09:35:08;22.20;99.90
17998;DHT22;9124;48.144;17.098;2023-09-19T09:39:58;22.40;99.90
17998;DHT22;9124;48.144;17.098;2023-09-19T09:44:39;22.50;99.90
17998;DHT22;9124;48.144;17.098;2023-09-19T09:49:05;22.40;99.90
17998;DHT22;9124;48.144;17.098;2023-09-19T09:53:50;22.40;99.90
17998;DHT22;9124;48.144;17.098;2023-09-19T09:58:19;22.20;99.90
17998;DHT22;9124;48.144;17.098;2023-09-19T10:02:46;21.90;99.90
17998;DHT22;9124;48.144;17.098;2023-09-19T10:07:25;21.90;99.90
17998;DHT22;9124;48.144;17.098;2023-09-19T10:12:09;22.10;99.90
17998;DHT22;9124;48.144;17.098;2023-09-19T10:16:46;22.00;99.90
17998;DHT22;9124;48.144;17.098;2023-09-19T10:21:14;21.80;99.90
17998;DHT22;9124;48.144;17.098;2023-09-19T10:25:42;21.80;99.90
17998;DHT22;9124;48.144;17.098;2023-09-19T10:30:10;22.20;99.90
17998;DHT22;9124;48.144;17.098;2023-09-19T10:34:37;22.80;99.90
17998;DHT22;9124;48.144;17.098;2023-09-19T10:39:08;23.60;99.90
17998;DHT22;9124;48.144;17.098;2023-09-19T10:43:39;25.10;98.70
17998;DHT22;9124;48.144;17.098;2023-09-19T10:48:06;25.50;95.80
17998;DHT22;9124;48.144;17.098;2023-09-19T10:52:34;26.00;94.40
17998;DHT22;9124;48.144;17.098;2023-09-19T10:57:07;27.10;91.90
17998;DHT22;9124;48.144;17.098;2023-09-19T11:01:51;27.80;90.40
17998;DHT22;9124;48.144;17.098;2023-09-19T11:06:19;27.70;86.50
17998;DHT22;9124;48.144;17.098;2023-09-19T11:10:48;27.40;84.40
17998;DHT22;9124;48.144;17.098;2023-09-19T11:20:19;26.80;80.20
17998;DHT22;9124;48.144;17.098;2023-09-19T11:24:51;26.80;78.90
17998;DHT22;9124;48.144;17.098;2023-09-19T11:29:27;26.70;78.30
17998;DHT22;9124;48.144;17.098;2023-09-19T11:38:59;25.90;77.00
17998;DHT22;9124;48.144;17.098;2023-09-19T11:43:35;25.70;76.90
17998;DHT22;9124;48.144;17.098;2023-09-19T11:48:03;25.80;77.00
17998;DHT22;9124;48.144;17.098;2023-09-19T11:52:32;26.30;77.20
17998;DHT22;9124;48.144;17.098;2023-09-19T11:57:03;26.80;75.30
17998;DHT22;9124;48.144;17.098;2023-09-19T12:01:32;26.50;74.30
17998;DHT22;9124;48.144;17.098;2023-09-19T12:06:00;25.80;74.30
17998;DHT22;9124;48.144;17.098;2023-09-19T12:10:28;25.90;75.40
17998;DHT22;9124;48.144;17.098;2023-09-19T12:14:56;26.60;75.30
17998;DHT22;9124;48.144;17.098;2023-09-19T12:19:29;26.80;72.80
17998;DHT22;9124;48.144;17.098;2023-09-19T12:24:12;26.30;72.60
17998;DHT22;9124;48.144;17.098;2023-09-19T12:28:45;25.40;71.90
17998;DHT22;9124;48.144;17.098;2023-09-19T12:33:20;25.40;73.50
17998;DHT22;9124;48.144;17.098;2023-09-19T12:37:53;26.20;73.20
17998;DHT22;9124;48.144;17.098;2023-09-19T12:42:23;26.30;71.70
17998;DHT22;9124;48.144;17.098;2023-09-19T12:46:50;25.80;71.50
17998;DHT22;9124;48.144;17.098;2023-09-19T12:51:16;25.30;72.10
17998;DHT22;9124;48.144;17.098;2023-09-19T12:55:59;25.10;72.80
17998;DHT22;9124;48.144;17.098;2023-09-19T13:00:36;25.00;72.10
17998;DHT22;9124;48.144;17.098;2023-09-19T13:05:03;24.70;72.40
17998;DHT22;9124;48.144;17.098;2023-09-19T13:09:33;24.40;73.10
17998;DHT22;9124;48.144;17.098;2023-09-19T13:14:20;24.30;74.00
17998;DHT22;9124;48.144;17.098;2023-09-19T13:18:53;24.60;74.70
17998;DHT22;9124;48.144;17.098;2023-09-19T13:23:27;25.30;74.50
17998;DHT22;9124;48.144;17.098;2023-09-19T13:27:54;25.70;74.10
17998;DHT22;9124;48.144;17.098;2023-09-19T13:32:22;25.30;74.00
17998;DHT22;9124;48.144;17.098;2023-09-19T13:36:49;24.50;74.60
17998;DHT22;9124;48.144;17.098;2023-09-19T13:41:15;24.10;76.00
17998;DHT22;9124;48.144;17.098;2023-09-19T13:45:42;23.70;77.70
17998;DHT22;9124;48.144;17.098;2023-09-19T13:50:09;22.80;79.40
17998;DHT22;9124;48.144;17.098;2023-09-19T13:54:35;22.30;82.30
17998;DHT22;9124;48.144;17.098;2023-09-19T13:59:02;21.90;84.70
17998;DHT22;9124;48.144;17.098;2023-09-19T14:03:29;21.60;86.80
17998;DHT22;9124;48.144;17.098;2023-09-19T14:07:57;21.30;89.90
17998;DHT22;9124;48.144;17.098;2023-09-19T14:12:25;21.20;91.20
17998;DHT22;9124;48.144;17.098;2023-09-19T14:16:52;21.10;92.40
17998;DHT22;9124;48.144;17.098;2023-09-19T14:21:19;21.10;93.80
17998;DHT22;9124;48.144;17.098;2023-09-19T14:25:45;21.20;95.10
17998;DHT22;9124;48.144;17.098;2023-09-19T14:30:12;21.30;96.20
17998;DHT22;9124;48.144;17.098;2023-09-19T14:34:38;21.40;97.00
17998;DHT22;9124;48.144;17.098;2023-09-19T14:39:08;21.50;97.60
17998;DHT22;9124;48.144;17.098;2023-09-19T14:43:35;21.60;98.10
17998;DHT22;9124;48.144;17.098;2023-09-19T14:48:01;21.60;98.90
17998;DHT22;9124;48.144;17.098;2023-09-19T14:52:31;21.60;99.70
17998;DHT22;9124;48.144;17.098;2023-09-19T14:56:58;21.50;99.90
17998;DHT22;9124;48.144;17.098;2023-09-19T15:01:30;21.40;99.90
17998;DHT22;9124;48.144;17.098;2023-09-19T15:06:02;21.30;99.90
17998;DHT22;9124;48.144;17.098;2023-09-19T15:10:28;21.20;99.90
17998;DHT22;9124;48.144;17.098;2023-09-19T15:14:55;21.30;99.90
17998;DHT22;9124;48.144;17.098;2023-09-19T15:19:23;21.30;99.90
17998;DHT22;9124;48.144;17.098;2023-09-19T15:23:49;21.30;99.90
17998;DHT22;9124;48.144;17.098;2023-09-19T15:28:15;21.40;99.90
17998;DHT22;9124;48.144;17.098;2023-09-19T15:32:42;21.50;99.90
17998;DHT22;9124;48.144;17.098;2023-09-19T15:37:08;21.60;99.90
17998;DHT22;9124;48.144;17.098;2023-09-19T15:41:37;21.60;99.90
17998;DHT22;9124;48.144;17.098;2023-09-19T15:46:04;21.60;99.90
17998;DHT22;9124;48.144;17.098;2023-09-19T15:50:30;21.50;99.90
17998;DHT22;9124;48.144;17.098;2023-09-19T15:54:56;21.40;99.90
17998;DHT22;9124;48.144;17.098;2023-09-19T15:59:23;21.30;99.90
17998;DHT22;9124;48.144;17.098;2023-09-19T16:03:51;21.10;99.90
17998;DHT22;9124;48.144;17.098;2023-09-19T16:08:21;20.80;99.90
17998;DHT22;9124;48.144;17.098;2023-09-19T16:12:49;20.50;99.90
17998;DHT22;9124;48.144;17.098;2023-09-19T16:17:16;20.30;99.90
17998;DHT22;9124;48.144;17.098;2023-09-19T16:21:43;20.10;99.90
17998;DHT22;9124;48.144;17.098;2023-09-19T16:26:10;19.90;99.90
17998;DHT22;9124;48.144;17.098;2023-09-19T16:30:41;19.70;99.90
17998;DHT22;9124;48.144;17.098;2023-09-19T16:35:08;19.60;99.90
17998;DHT22;9124;48.144;17.098;2023-09-19T16:39:36;19.40;99.90
17998;DHT22;9124;48.144;17.098;2023-09-19T16:44:02;19.30;99.90
17998;DHT22;9124;48.144;17.098;2023-09-19T16:48:35;19.10;99.90
17998;DHT22;9124;48.144;17.098;2023-09-19T16:53:01;18.90;99.90
17998;DHT22;9124;48.144;17.098;2023-09-19T16:57:28;18.90;99.90
17998;DHT22;9124;48.144;17.098;2023-09-19T17:01:54;18.90;99.90
17998;DHT22;9124;48.144;17.098;2023-09-19T17:06:22;18.80;99.90
17998;DHT22;9124;48.144;17.098;2023-09-19T17:10:50;18.70;99.90
17998;DHT22;9124;48.144;17.098;2023-09-19T17:15:19;18.60;99.90
17998;DHT22;9124;48.144;17.098;2023-09-19T17:19:48;18.50;99.90
17998;DHT22;9124;48.144;17.098;2023-09-19T17:24:14;18.40;99.90
17998;DHT22;9124;48.144;17.098;2023-09-19T17:28:42;18.40;99.90
17998;DHT22;9124;48.144;17.098;2023-09-19T17:33:08;18.30;99.90
17998;DHT22;9124;48.144;17.098;2023-09-19T17:37:35;18.30;99.90
17998;DHT22;9124;48.144;17.098;2023-09-19T17:42:02;18.30;99.90
17998;DHT22;9124;48.144;17.098;2023-09-19T17:46:31;18.20;99.90
17998;DHT22;9124;48.144;17.098;2023-09-19T17:51:01;18.10;99.90
17998;DHT22;9124;48.144;17.098;2023-09-19T17:55:29;18.00;99.90
17998;DHT22;9124;48.144;17.098;2023-09-19T17:59:56;18.00;99.90
17998;DHT22;9124;48.144;17.098;2023-09-19T18:04:22;17.90;99.90
17998;DHT22;9124;48.144;17.098;2023-09-19T18:08:48;17.90;99.90
17998;DHT22;9124;48.144;17.098;2023-09-19T18:13:15;17.90;99.90
17998;DHT22;9124;48.144;17.098;2023-09-19T18:17:41;17.80;99.90
17998;DHT22;9124;48.144;17.098;2023-09-19T18:22:08;17.80;99.90
17998;DHT22;9124;48.144;17.098;2023-09-19T18:26:34;17.70;99.90
17998;DHT22;9124;48.144;17.098;2023-09-19T18:31:08;17.70;99.90
17998;DHT22;9124;48.144;17.098;2023-09-19T18:35:34;17.60;99.90
17998;DHT22;9124;48.144;17.098;2023-09-19T18:40:01;17.60;99.90
17998;DHT22;9124;48.144;17.098;2023-09-19T18:44:28;17.60;99.90
17998;DHT22;9124;48.144;17.098;2023-09-19T18:48:54;17.50;99.90
17998;DHT22;9124;48.144;17.098;2023-09-19T18:57:52;17.50;99.90
17998;DHT22;9124;48.144;17.098;2023-09-19T19:02:18;17.40;99.90
17998;DHT22;9124;48.144;17.098;2023-09-19T19:06:46;17.40;99.90
17998;DHT22;9124;48.144;17.098;2023-09-19T19:11:14;17.40;99.90
17998;DHT22;9124;48.144;17.098;2023-09-19T19:15:42;17.40;99.90
17998;DHT22;9124;48.144;17.098;2023-09-19T19:20:08;17.40;99.90
17998;DHT22;9124;48.144;17.098;2023-09-19T19:24:36;17.40;99.90
17998;DHT22;9124;48.144;17.098;2023-09-19T19:29:02;17.40;99.90
17998;DHT22;9124;48.144;17.098;2023-09-19T19:33:29;17.40;99.90
17998;DHT22;9124;48.144;17.098;2023-09-19T19:37:55;17.40;99.90
17998;DHT22;9124;48.144;17.098;2023-09-19T19:42:22;17.50;99.90
17998;DHT22;9124;48.144;17.098;2023-09-19T19:46:50;17.40;99.90
17998;DHT22;9124;48.144;17.098;2023-09-19T19:51:17;17.40;99.90
17998;DHT22;9124;48.144;17.098;2023-09-19T19:55:43;17.50;99.90
17998;DHT22;9124;48.144;17.098;2023-09-19T20:00:10;17.40;99.90
17998;DHT22;9124;48.144;17.098;2023-09-19T20:04:37;17.40;99.90
17998;DHT22;9124;48.144;17.098;2023-09-19T20:09:05;17.40;99.90
17998;DHT22;9124;48.144;17.098;2023-09-19T20:13:33;17.40;99.90
17998;DHT22;9124;48.144;17.098;2023-09-19T20:18:01;17.40;99.90
17998;DHT22;9124;48.144;17.098;2023-09-19T20:22:28;17.40;99.90
17998;DHT22;9124;48.144;17.098;2023-09-19T20:26:54;17.40;99.90
17998;DHT22;9124;48.144;17.098;2023-09-19T20:31:26;17.40;99.90
17998;DHT22;9124;48.144;17.098;2023-09-19T20:35:57;17.30;99.90
17998;DHT22;9124;48.144;17.098;2023-09-19T20:40:24;17.20;99.90
17998;DHT22;9124;48.144;17.098;2023-09-19T20:44:51;17.10;99.90
17998;DHT22;9124;48.144;17.098;2023-09-19T20:49:21;17.10;99.90
17998;DHT22;9124;48.144;17.098;2023-09-19T20:53:50;17.10;99.90
17998;DHT22;9124;48.144;17.098;2023-09-19T20:58:17;17.00;99.90
17998;DHT22;9124;48.144;17.098;2023-09-19T21:02:43;16.90;99.90
17998;DHT22;9124;48.144;17.098;2023-09-19T21:07:11;16.80;99.90
17998;DHT22;9124;48.144;17.098;2023-09-19T21:11:38;16.70;99.90
17998;DHT22;9124;48.144;17.098;2023-09-19T21:16:10;16.60;99.90
17998;DHT22;9124;48.144;17.098;2023-09-19T21:20:41;16.50;99.90
17998;DHT22;9124;48.144;17.098;2023-09-19T21:25:07;16.40;99.90
17998;DHT22;9124;48.144;17.098;2023-09-19T21:29:34;16.30;99.90
17998;DHT22;9124;48.144;17.098;2023-09-19T21:34:00;16.40;99.90
17998;DHT22;9124;48.144;17.098;2023-09-19T21:38:29;16.50;99.90
17998;DHT22;9124;48.144;17.098;2023-09-19T21:42:55;16.60;99.90
17998;DHT22;9124;48.144;17.098;2023-09-19T21:47:22;16.70;99.90
17998;DHT22;9124;48.144;17.098;2023-09-19T21:51:48;16.70;99.90
17998;DHT22;9124;48.144;17.098;2023-09-19T21:56:15;16.70;99.90
17998;DHT22;9124;48.144;17.098;2023-09-19T22:00:43;16.70;99.90
17998;DHT22;9124;48.144;17.098;2023-09-19T22:05:12;16.70;99.90
17998;DHT22;9124;48.144;17.098;2023-09-19T22:09:39;16.60;99.90
17998;DHT22;9124;48.144;17.098;2023-09-19T22:14:05;16.50;99.90
17998;DHT22;9124;48.144;17.098;2023-09-19T22:18:33;16.40;99.90
17998;DHT22;9124;48.144;17.098;2023-09-19T22:23:00;16.30;99.90
17998;DHT22;9124;48.144;17.098;2023-09-19T22:27:27;16.20;99.90
17998;DHT22;9124;48.144;17.098;2023-09-19T22:31:53;16.10;99.90
17998;DHT22;9124;48.144;17.098;2023-09-19T22:36:25;16.00;99.90
17998;DHT22;9124;48.144;17.098;2023-09-19T22:41:02;15.90;99.90
17998;DHT22;9124;48.144;17.098;2023-09-19T22:45:36;15.80;99.90
17998;DHT22;9124;48.144;17.098;2023-09-19T22:50:03;15.80;99.90
17998;DHT22;9124;48.144;17.098;2023-09-19T22:54:32;15.70;99.90
17998;DHT22;9124;48.144;17.098;2023-09-19T22:59:01;15.70;99.90
17998;DHT22;9124;48.144;17.098;2023-09-19T23:03:30;15.70;99.90
17998;DHT22;9124;48.144;17.098;2023-09-19T23:07:57;15.80;99.90
17998;DHT22;9124;48.144;17.098;2023-09-19T23:12:24;15.90;99.90
17998;DHT22;9124;48.144;17.098;2023-09-19T23:16:50;16.10;99.90
17998;DHT22;9124;48.144;17.098;2023-09-19T23:21:26;16.10;99.90
17998;DHT22;9124;48.144;17.098;2023-09-19T23:25:53;16.10;99.90
17998;DHT22;9124;48.144;17.098;2023-09-19T23:30:19;16.10;99.90
17998;DHT22;9124;48.144;17.098;2023-09-19T23:34:48;16.10;99.90
17998;DHT22;9124;48.144;17.098;2023-09-19T23:39:15;16.10;99.90
17998;DHT22;9124;48.144;17.098;2023-09-19T23:43:41;16.10;99.90
17998;DHT22;9124;48.144;17.098;2023-09-19T23:48:08;16.10;99.90
17998;DHT22;9124;48.144;17.098;2023-09-19T23:52:35;16.10;99.90
17998;DHT22;9124;48.144;17.098;2023-09-19T23:57:02;16.10;99.90
